Time;durP1;ratioP1;P1;durP2;ratioP2;P2;SDS_P1;SDS_P2;PMS_P1;PMS_P2;Temp;Humidity;BMP_temperature;BMP_pressure;BME280_temperature;BME280_humidity;BME280_pressure;Samples;Min_cycle;Max_cycle;Signal;HPM_P1;HPM_P2
2023/01/27 00:02:20;;;;;;;22.75;15.07;;;4.20;99.90;;;;;;6216122;23;20363;-88
2023/01/27 00:04:45;;;;;;;20.20;15.07;;;4.20;99.90;;;;;;6221084;23;20008;-88
2023/01/27 00:07:11;;;;;;;19.35;14.55;;;4.20;99.90;;;;;;6218140;23;20417;-88
2023/01/27 00:09:37;;;;;;;22.13;15.57;;;4.20;99.90;;;;;;6191114;23;20470;-88
2023/01/27 00:14:46;;;;;;;18.52;15.70;;;4.20;99.90;;;;;;6215675;23;20455;-88
2023/01/27 00:17:12;;;;;;;20.05;15.82;;;4.20;99.90;;;;;;6191054;23;20008;-89
2023/01/27 00:19:38;;;;;;;17.05;15.30;;;4.20;99.90;;;;;;6190835;23;20096;-89
2023/01/27 00:24:47;;;;;;;18.23;15.63;;;4.20;99.90;;;;;;6217417;23;20021;-88
2023/01/27 00:27:13;;;;;;;18.52;15.05;;;4.20;99.90;;;;;;6216208;23;20011;-89
2023/01/27 00:29:39;;;;;;;19.90;15.70;;;4.50;99.90;;;;;;6216655;23;20335;-87
2023/01/27 00:34:49;;;;;;;21.75;16.00;;;4.10;99.90;;;;;;6215377;23;20016;-88
2023/01/27 00:37:15;;;;;;;16.92;15.20;;;4.20;99.90;;;;;;6190530;23;20008;-88
2023/01/27 00:39:41;;;;;;;17.35;15.23;;;4.10;99.90;;;;;;6217261;23;20012;-89
2023/01/27 00:42:06;;;;;;;16.10;13.98;;;4.10;99.90;;;;;;6216248;23;20016;-88
2023/01/27 00:44:32;;;;;;;14.55;12.75;;;4.10;99.90;;;;;;6190041;23;20416;-87
2023/01/27 00:46:58;;;;;;;14.20;11.60;;;4.10;99.90;;;;;;6190940;23;20020;-88
2023/01/27 00:49:24;;;;;;;20.55;11.48;;;4.20;99.90;;;;;;6215309;23;20041;-88
2023/01/27 00:51:49;;;;;;;15.27;11.07;;;4.10;99.90;;;;;;6217241;23;20016;-88
2023/01/27 00:54:15;;;;;;;13.15;10.50;;;4.10;99.90;;;;;;6194604;23;20004;-88
2023/01/27 00:56:41;;;;;;;14.73;11.40;;;4.10;99.90;;;;;;6215298;23;20005;-88
2023/01/27 00:59:07;;;;;;;14.77;12.40;;;4.10;99.90;;;;;;6189207;23;20017;-88
2023/01/27 01:01:33;;;;;;;15.13;12.38;;;4.10;99.90;;;;;;6190045;23;20027;-89
2023/01/27 01:03:59;;;;;;;15.68;11.60;;;4.10;99.90;;;;;;6215554;23;20080;-88
2023/01/27 01:06:25;;;;;;;13.63;11.15;;;4.10;99.90;;;;;;6190806;23;20016;-89
2023/01/27 01:08:51;;;;;;;14.20;10.18;;;4.10;99.90;;;;;;6214841;23;20016;-89
2023/01/27 01:11:20;;;;;;;12.80;10.18;;;4.10;99.90;;;;;;6189775;23;20068;-89
2023/01/27 01:13:46;;;;;;;12.95;8.98;;;4.20;99.90;;;;;;6189992;23;20374;-88
2023/01/27 01:16:16;;;;;;;20.90;8.90;;;4.40;99.90;;;;;;6215101;23;20094;-88
2023/01/27 01:18:42;;;;;;;11.68;7.70;;;4.10;99.90;;;;;;6240318;23;20018;-87
2023/01/27 01:21:08;;;;;;;10.77;7.40;;;4.10;99.90;;;;;;6215037;23;20456;-88
2023/01/27 01:23:38;;;;;;;10.40;7.32;;;4.10;99.90;;;;;;6240942;23;20012;-88
2023/01/27 01:26:03;;;;;;;13.95;7.25;;;4.10;99.90;;;;;;6241026;23;20012;-89
2023/01/27 01:28:29;;;;;;;13.25;7.00;;;4.10;99.90;;;;;;6240806;23;20008;-88
2023/01/27 01:30:55;;;;;;;9.70;6.75;;;4.10;99.90;;;;;;6190155;23;20009;-88
2023/01/27 01:33:21;;;;;;;11.50;6.68;;;4.10;99.90;;;;;;6215719;23;20012;-88
2023/01/27 01:35:46;;;;;;;10.93;6.38;;;4.10;99.90;;;;;;6215437;23;20008;-88
2023/01/27 01:38:12;;;;;;;10.48;6.43;;;4.10;99.90;;;;;;6190210;23;20013;-87
2023/01/27 01:40:43;;;;;;;9.05;5.82;;;4.10;99.90;;;;;;6245769;23;20395;-88
2023/01/27 01:43:14;;;;;;;12.73;5.65;;;4.30;99.90;;;;;;6216574;23;20028;-89
2023/01/27 01:45:51;;;;;;;12.07;5.75;;;4.10;99.90;;;;;;6215528;23;20013;-88
2023/01/27 01:48:32;;;;;;;9.55;5.45;;;4.20;99.90;;;;;;6215376;23;20009;-88
2023/01/27 01:51:04;;;;;;;9.48;5.65;;;4.10;99.90;;;;;;6214836;23;20527;-88
2023/01/27 01:53:35;;;;;;;6.68;5.13;;;4.10;99.90;;;;;;6215312;23;20091;-89
2023/01/27 01:56:09;;;;;;;8.70;5.38;;;4.10;99.90;;;;;;6215394;23;20009;-88
2023/01/27 01:58:35;;;;;;;7.95;4.72;;;4.10;99.90;;;;;;6240989;23;20059;-88
2023/01/27 02:01:03;;;;;;;9.50;5.22;;;4.50;99.90;;;;;;6214858;23;20009;-89
2023/01/27 02:03:29;;;;;;;8.18;4.47;;;4.60;99.90;;;;;;6213945;23;20008;-88
2023/01/27 02:05:55;;;;;;;6.25;4.60;;;4.20;99.90;;;;;;6215482;23;20016;-88
2023/01/27 02:08:34;;;;;;;7.43;4.45;;;4.20;99.90;;;;;;6190157;23;20071;-89
2023/01/27 02:11:00;;;;;;;8.50;4.63;;;4.20;99.90;;;;;;6215182;23;20025;-89
2023/01/27 02:13:26;;;;;;;7.35;4.53;;;4.20;99.90;;;;;;6189403;23;20039;-88
2023/01/27 02:15:54;;;;;;;8.27;4.32;;;4.20;99.90;;;;;;6190339;23;20008;-89
2023/01/27 02:18:20;;;;;;;6.00;4.38;;;4.30;99.90;;;;;;6190327;23;20019;-89
2023/01/27 02:20:48;;;;;;;8.75;4.38;;;4.20;99.90;;;;;;6216515;23;20048;-87
2023/01/27 02:23:34;;;;;;;8.60;4.03;;;4.20;99.90;;;;;;6217647;23;20016;-89
2023/01/27 02:26:00;;;;;;;7.55;3.97;;;4.30;99.90;;;;;;6216927;23;20019;-88
2023/01/27 02:28:27;;;;;;;5.35;3.45;;;4.30;99.90;;;;;;6217914;23;20040;-88
2023/01/27 02:30:53;;;;;;;6.88;3.80;;;4.40;99.90;;;;;;6223049;23;20028;-88
2023/01/27 02:33:18;;;;;;;6.82;3.40;;;4.30;99.90;;;;;;6196664;23;20019;-88
2023/01/27 02:36:10;;;;;;;4.75;2.92;;;4.20;99.90;;;;;;6196345;23;20015;-89
2023/01/27 02:38:42;;;;;;;9.80;3.63;;;4.30;99.90;;;;;;6219358;23;20013;-89
2023/01/27 02:41:20;;;;;;;8.82;3.22;;;4.50;99.90;;;;;;6216853;23;20047;-88
2023/01/27 02:43:48;;;;;;;6.72;3.15;;;4.30;99.90;;;;;;6215938;23;20028;-87
2023/01/27 02:46:14;;;;;;;8.55;3.22;;;4.30;99.90;;;;;;6216745;23;20074;-88
2023/01/27 02:48:40;;;;;;;7.28;3.25;;;4.40;99.90;;;;;;6216220;23;20146;-88
2023/01/27 02:51:05;;;;;;;6.10;2.95;;;4.50;99.90;;;;;;6191936;23;20485;-88
2023/01/27 02:53:31;;;;;;;5.25;3.20;;;4.40;99.90;;;;;;6191452;23;20044;-87
2023/01/27 02:55:57;;;;;;;7.07;3.10;;;4.40;99.90;;;;;;6191035;23;20444;-87
2023/01/27 02:58:22;;;;;;;4.22;2.78;;;4.30;99.90;;;;;;6217052;23;20012;-89
2023/01/27 03:00:48;;;;;;;5.57;2.80;;;4.40;99.90;;;;;;6191990;23;20062;-89
2023/01/27 03:03:13;;;;;;;4.80;2.80;;;4.80;99.90;;;;;;6216661;23;20063;-88
2023/01/27 03:05:39;;;;;;;6.70;2.72;;;4.40;99.90;;;;;;6191839;23;20016;-88
2023/01/27 03:08:05;;;;;;;4.65;2.65;;;4.40;99.90;;;;;;6216573;23;20436;-89
2023/01/27 03:10:31;;;;;;;6.22;2.90;;;4.40;99.90;;;;;;6216194;23;20037;-88
2023/01/27 03:12:57;;;;;;;6.18;2.88;;;4.30;99.90;;;;;;6190857;23;20232;-87
2023/01/27 03:18:11;;;;;;;3.97;2.50;;;4.30;99.90;;;;;;6221384;23;20016;-88
2023/01/27 03:20:47;;;;;;;6.95;2.90;;;4.30;99.90;;;;;;6216807;23;20351;-89
2023/01/27 03:23:15;;;;;;;5.18;2.78;;;4.30;99.90;;;;;;6216825;23;20016;-89
2023/01/27 03:25:46;;;;;;;5.07;2.75;;;4.80;99.90;;;;;;6240623;23;20008;-89
2023/01/27 03:28:13;;;;;;;7.43;2.85;;;4.30;99.90;;;;;;6216754;23;20012;-88
2023/01/27 03:30:39;;;;;;;6.35;2.92;;;4.30;99.90;;;;;;6241706;23;20012;-89
2023/01/27 03:33:06;;;;;;;5.00;3.05;;;4.30;99.90;;;;;;6190657;23;20020;-88
2023/01/27 03:35:37;;;;;;;5.72;3.10;;;4.30;99.90;;;;;;6191204;23;20019;-89
2023/01/27 03:46:19;;;;;;;6.22;3.05;;;4.20;99.90;;;;;;6215901;23;20028;-88
2023/01/27 03:48:50;;;;;;;5.43;2.95;;;4.20;99.90;;;;;;6216000;23;20032;-88
2023/01/27 03:51:17;;;;;;;5.50;2.97;;;4.20;99.90;;;;;;6241211;23;20004;-89
2023/01/27 03:53:43;;;;;;;4.90;2.60;;;4.20;99.90;;;;;;6217722;23;20009;-89
2023/01/27 03:56:09;;;;;;;5.90;3.17;;;4.20;99.90;;;;;;6190794;23;20028;-88
2023/01/27 03:58:36;;;;;;;5.32;2.95;;;4.50;99.90;;;;;;6216267;23;20012;-89
2023/01/27 04:01:11;;;;;;;5.13;3.03;;;4.10;99.90;;;;;;6241119;23;20012;-88
2023/01/27 04:09:10;;;;;;;5.05;3.00;;;4.10;99.90;;;;;;6215798;23;20025;-88
2023/01/27 04:11:54;;;;;;;5.80;3.33;;;4.10;99.90;;;;;;6215684;23;20017;-88
2023/01/27 04:14:40;;;;;;;5.65;3.10;;;4.10;99.90;;;;;;6190890;23;20008;-89
2023/01/27 04:17:12;;;;;;;5.90;2.80;;;4.10;99.90;;;;;;6242020;23;20087;-88
2023/01/27 04:19:38;;;;;;;5.47;3.30;;;4.10;99.90;;;;;;6215476;23;20028;-89
2023/01/27 04:22:05;;;;;;;8.05;2.97;;;4.10;99.90;;;;;;6215109;23;20026;-89
2023/01/27 04:24:32;;;;;;;5.20;3.08;;;4.10;99.90;;;;;;6241553;23;20016;-88
2023/01/27 04:27:03;;;;;;;7.55;3.03;;;4.10;99.90;;;;;;6240872;23;20017;-88
2023/01/27 04:29:30;;;;;;;7.75;2.90;;;4.10;99.90;;;;;;6215081;23;20012;-88
2023/01/27 04:31:56;;;;;;;9.68;3.20;;;4.00;99.90;;;;;;6240915;23;20013;-88
2023/01/27 04:34:23;;;;;;;5.07;3.10;;;4.10;99.90;;;;;;6240733;23;20088;-88
2023/01/27 04:36:49;;;;;;;7.97;3.40;;;4.10;99.90;;;;;;6215148;23;20075;-89
2023/01/27 04:39:15;;;;;;;8.68;3.63;;;4.00;99.90;;;;;;6215901;23;20012;-89
2023/01/27 04:41:42;;;;;;;7.55;3.40;;;4.00;99.90;;;;;;6215017;23;20012;-88
2023/01/27 04:44:07;;;;;;;7.10;3.33;;;4.00;99.90;;;;;;6215678;23;20092;-87
2023/01/27 04:46:34;;;;;;;7.30;3.40;;;4.00;99.90;;;;;;6189904;23;20012;-88
2023/01/27 04:49:00;;;;;;;6.90;3.65;;;4.00;99.90;;;;;;6241394;23;20009;-89
2023/01/27 04:51:26;;;;;;;8.07;3.38;;;4.00;99.90;;;;;;6215484;23;20008;-89
2023/01/27 04:53:52;;;;;;;6.28;3.35;;;4.00;99.90;;;;;;6224379;23;20096;-89
2023/01/27 04:56:27;;;;;;;4.60;3.15;;;4.00;99.90;;;;;;6215741;23;20032;-89
2023/01/27 04:58:53;;;;;;;5.32;3.60;;;4.10;99.90;;;;;;6241010;23;20060;-88
2023/01/27 05:01:19;;;;;;;7.18;3.75;;;4.10;99.90;;;;;;6215777;23;20328;-89
2023/01/27 05:03:45;;;;;;;6.50;3.53;;;4.00;99.90;;;;;;6241031;23;20005;-88
2023/01/27 05:06:11;;;;;;;6.25;3.83;;;4.00;99.90;;;;;;6189500;23;20490;-89
2023/01/27 05:08:37;;;;;;;6.75;3.70;;;4.00;99.90;;;;;;6215628;23;20084;-88
2023/01/27 05:11:03;;;;;;;6.28;3.38;;;4.00;99.90;;;;;;6215119;23;20059;-89
2023/01/27 05:13:29;;;;;;;11.15;3.90;;;4.00;99.90;;;;;;6216034;23;20080;-89
2023/01/27 05:16:10;;;;;;;5.75;3.88;;;4.10;99.90;;;;;;6241308;23;20278;-88
2023/01/27 05:18:36;;;;;;;6.38;4.50;;;4.00;99.90;;;;;;6215040;23;20016;-87
2023/01/27 05:21:02;;;;;;;9.10;4.85;;;4.10;99.90;;;;;;6215539;23;20027;-89
2023/01/27 05:23:34;;;;;;;12.50;6.18;;;4.00;99.90;;;;;;6214454;23;20016;-88
2023/01/27 05:26:06;;;;;;;45.22;26.88;;;4.00;99.90;;;;;;6215240;23;20019;-88
2023/01/27 05:28:33;;;;;;;57.97;33.38;;;3.90;99.90;;;;;;6192234;23;20013;-89
2023/01/27 05:31:22;;;;;;;21.60;12.18;;;3.90;99.90;;;;;;6214724;23;20028;-88
2023/01/27 05:33:50;;;;;;;8.35;6.35;;;4.00;99.90;;;;;;6190889;23;20017;-88
2023/01/27 05:36:18;;;;;;;8.40;6.07;;;3.90;99.90;;;;;;6240726;23;20023;-88
2023/01/27 05:38:44;;;;;;;14.38;12.98;;;3.90;99.90;;;;;;6215888;23;20013;-89
2023/01/27 05:41:12;;;;;;;10.23;8.52;;;3.90;99.90;;;;;;6189801;23;20023;-88
2023/01/27 05:43:39;;;;;;;8.00;5.30;;;3.90;99.90;;;;;;6241906;23;20016;-88
2023/01/27 05:46:06;;;;;;;9.07;5.80;;;3.90;99.90;;;;;;6219848;23;20021;-89
2023/01/27 05:48:37;;;;;;;10.43;5.50;;;3.90;99.90;;;;;;6243002;23;20078;-89
2023/01/27 05:51:04;;;;;;;8.20;4.00;;;3.90;99.90;;;;;;6214374;23;20017;-89
2023/01/27 05:53:30;;;;;;;7.40;3.60;;;3.80;99.90;;;;;;6240948;23;20060;-89
2023/01/27 05:55:56;;;;;;;8.57;3.78;;;3.80;99.90;;;;;;6214642;23;20290;-87
2023/01/27 05:58:22;;;;;;;9.32;5.38;;;3.80;99.90;;;;;;6214085;23;20078;-84
2023/01/27 06:00:48;;;;;;;10.25;6.60;;;4.20;99.90;;;;;;6210490;23;20074;-86
2023/01/27 06:03:14;;;;;;;10.07;6.63;;;3.80;99.90;;;;;;6211455;23;20435;-90
2023/01/27 06:05:49;;;;;;;7.53;5.15;;;4.00;99.90;;;;;;6239982;23;20009;-89
2023/01/27 06:08:14;;;;;;;12.02;8.13;;;3.80;99.90;;;;;;6240204;23;20028;-87
2023/01/27 06:10:40;;;;;;;10.93;8.05;;;3.80;99.90;;;;;;6213827;23;20013;-88
2023/01/27 06:13:06;;;;;;;8.80;6.65;;;3.80;99.90;;;;;;6189193;23;20017;-89
2023/01/27 06:15:31;;;;;;;7.63;4.00;;;3.80;99.90;;;;;;6189859;23;20008;-89
2023/01/27 06:17:57;;;;;;;6.40;3.72;;;3.70;99.90;;;;;;6189924;23;20055;-89
2023/01/27 06:20:23;;;;;;;5.22;3.30;;;3.80;99.90;;;;;;6189594;23;20016;-91
2023/01/27 06:22:49;;;;;;;7.85;3.53;;;3.70;99.90;;;;;;6190122;23;20016;-91
2023/01/27 06:25:15;;;;;;;8.68;5.00;;;3.70;99.90;;;;;;6215702;23;20016;-89
2023/01/27 06:27:40;;;;;;;33.97;20.30;;;3.70;99.90;;;;;;6191911;23;20096;-87
2023/01/27 06:30:07;;;;;;;39.63;22.52;;;3.80;99.90;;;;;;6198144;23;20012;-91
2023/01/27 06:32:35;;;;;;;28.55;14.23;;;3.70;99.90;;;;;;6191120;23;20339;-89
2023/01/27 06:35:01;;;;;;;31.45;15.20;;;3.70;99.90;;;;;;6188457;23;20005;-91
2023/01/27 06:37:29;;;;;;;19.73;8.70;;;3.70;99.90;;;;;;6212012;23;20109;-91
2023/01/27 06:39:55;;;;;;;42.05;23.63;;;3.70;99.90;;;;;;6187829;23;20013;-90
2023/01/27 06:42:20;;;;;;;18.15;9.82;;;3.70;99.90;;;;;;6213051;23;20019;-91
2023/01/27 06:44:46;;;;;;;11.95;7.82;;;3.70;99.90;;;;;;6187319;23;20120;-90
2023/01/27 06:47:12;;;;;;;10.05;8.02;;;3.70;99.90;;;;;;6187358;23;20020;-89
2023/01/27 06:49:37;;;;;;;9.32;4.20;;;3.80;99.90;;;;;;6186736;23;20168;-89
2023/01/27 06:52:03;;;;;;;8.02;5.07;;;4.00;99.90;;;;;;6211303;23;20012;-89
2023/01/27 06:54:28;;;;;;;5.55;2.90;;;3.70;99.90;;;;;;6187087;23;20132;-90
2023/01/27 06:56:54;;;;;;;10.35;4.40;;;3.90;99.90;;;;;;6212559;23;20136;-92
2023/01/27 06:59:20;;;;;;;7.15;3.22;;;3.70;99.90;;;;;;6186016;23;20385;-89
2023/01/27 07:01:45;;;;;;;8.45;3.30;;;3.80;99.90;;;;;;6211949;23;20012;-89
2023/01/27 07:04:11;;;;;;;7.43;3.20;;;3.80;99.90;;;;;;6187071;23;20052;-82
2023/01/27 07:06:37;;;;;;;12.10;3.78;;;3.70;99.90;;;;;;6210812;23;20044;-84
2023/01/27 07:09:02;;;;;;;8.05;3.42;;;3.80;99.90;;;;;;6186520;23;20408;-87
2023/01/27 07:11:28;;;;;;;5.53;3.00;;;3.80;99.90;;;;;;6187947;23;20154;-88
2023/01/27 07:13:54;;;;;;;7.13;3.50;;;3.80;99.90;;;;;;6212923;23;20466;-88
2023/01/27 07:16:20;;;;;;;10.32;3.92;;;3.80;99.90;;;;;;6188074;23;20491;-87
2023/01/27 07:18:45;;;;;;;9.23;4.00;;;3.90;99.90;;;;;;6218901;23;20023;-88
2023/01/27 07:21:11;;;;;;;10.15;4.43;;;3.80;99.90;;;;;;6213662;23;20009;-88
2023/01/27 07:23:37;;;;;;;9.43;3.83;;;3.80;99.90;;;;;;6189165;23;20347;-88
2023/01/27 07:26:02;;;;;;;6.85;3.75;;;3.90;99.90;;;;;;6188281;23;20040;-88
2023/01/27 07:28:28;;;;;;;11.20;4.13;;;3.70;99.90;;;;;;6188218;23;20012;-88
2023/01/27 07:30:54;;;;;;;9.57;4.25;;;3.70;99.90;;;;;;6213201;23;20012;-87
2023/01/27 07:33:19;;;;;;;10.32;4.50;;;3.70;99.90;;;;;;6213735;23;20343;-88
2023/01/27 07:35:48;;;;;;;8.23;4.03;;;3.70;99.90;;;;;;6188244;23;20013;-87
2023/01/27 07:38:14;;;;;;;9.10;4.30;;;3.70;99.90;;;;;;6212857;23;20012;-88
2023/01/27 07:40:40;;;;;;;8.35;3.70;;;3.70;99.90;;;;;;6186613;23;20077;-88
2023/01/27 07:43:06;;;;;;;9.98;4.03;;;3.90;99.90;;;;;;6185726;23;20016;-89
2023/01/27 07:45:31;;;;;;;7.85;3.88;;;3.60;99.90;;;;;;6211651;23;20636;-89
2023/01/27 07:48:02;;;;;;;8.98;3.92;;;3.50;99.90;;;;;;6185864;23;20382;-89
2023/01/27 07:50:28;;;;;;;8.90;4.20;;;3.50;99.90;;;;;;6236677;23;20013;-88
2023/01/27 07:52:53;;;;;;;11.35;4.78;;;3.50;99.90;;;;;;6210912;23;20060;-86
2023/01/27 07:55:19;;;;;;;9.48;4.45;;;3.60;99.90;;;;;;6212651;23;20012;-89
2023/01/27 07:57:44;;;;;;;9.88;4.43;;;3.60;99.90;;;;;;6187009;23;20470;-88
2023/01/27 08:00:14;;;;;;;8.95;4.68;;;3.50;99.90;;;;;;6187204;23;20017;-93
2023/01/27 08:02:40;;;;;;;11.75;4.57;;;3.50;99.90;;;;;;6213800;23;20012;-89
2023/01/27 08:05:06;;;;;;;10.07;4.97;;;3.60;99.90;;;;;;6188422;23;20015;-88
2023/01/27 08:07:31;;;;;;;11.32;4.78;;;3.60;99.90;;;;;;6191698;23;20103;-88
2023/01/27 08:09:57;;;;;;;11.48;5.15;;;3.50;99.90;;;;;;6213631;23;20322;-88
2023/01/27 08:12:23;;;;;;;8.75;4.47;;;3.50;99.90;;;;;;6212345;23;20047;-87
2023/01/27 08:14:48;;;;;;;10.23;4.68;;;3.60;99.90;;;;;;6186614;23;20383;-88
2023/01/27 08:17:14;;;;;;;11.40;4.68;;;4.00;99.90;;;;;;6186913;23;20013;-87
2023/01/27 08:19:40;;;;;;;13.35;5.15;;;3.60;99.90;;;;;;6186146;23;20012;-88
2023/01/27 08:22:05;;;;;;;11.35;4.80;;;3.60;99.90;;;;;;6213289;23;20008;-87
2023/01/27 08:24:31;;;;;;;8.73;4.70;;;3.50;99.90;;;;;;6212571;23;20012;-87
2023/01/27 08:26:56;;;;;;;12.88;5.30;;;3.50;99.90;;;;;;6186953;23;20012;-88
2023/01/27 08:29:22;;;;;;;9.55;4.35;;;3.50;99.90;;;;;;6187300;23;20051;-87
2023/01/27 08:31:48;;;;;;;15.57;5.25;;;4.00;99.90;;;;;;6212267;23;20059;-86
2023/01/27 08:34:15;;;;;;;12.50;4.82;;;3.50;99.90;;;;;;6213696;23;20016;-87
2023/01/27 08:36:42;;;;;;;9.32;4.70;;;3.50;99.90;;;;;;6187060;23;20020;-87
2023/01/27 08:39:09;;;;;;;10.00;4.97;;;3.60;99.90;;;;;;6187147;23;20134;-87
2023/01/27 08:41:35;;;;;;;13.38;5.15;;;3.60;99.90;;;;;;6237967;23;20017;-87
2023/01/27 08:44:00;;;;;;;13.50;5.13;;;3.60;99.90;;;;;;6185659;23;20016;-86
2023/01/27 08:46:26;;;;;;;12.15;6.93;;;3.60;99.90;;;;;;6211660;23;20352;-85
2023/01/27 08:48:52;;;;;;;16.08;9.38;;;3.60;99.90;;;;;;6211901;23;20019;-87
2023/01/27 08:51:17;;;;;;;20.10;10.32;;;3.70;99.90;;;;;;6211178;23;20024;-86
2023/01/27 08:53:43;;;;;;;34.67;7.45;;;3.70;99.90;;;;;;6236448;23;20016;-86
2023/01/27 08:56:13;;;;;;;10.10;5.50;;;3.70;99.90;;;;;;6214946;23;20008;-87
2023/01/27 08:58:40;;;;;;;10.02;5.00;;;3.80;99.90;;;;;;6211753;23;20028;-89
2023/01/27 09:01:07;;;;;;;14.63;6.00;;;3.90;99.90;;;;;;6212656;23;20053;-88
2023/01/27 09:03:33;;;;;;;9.32;5.30;;;3.90;99.90;;;;;;6213392;23;20075;-91
2023/01/27 09:05:59;;;;;;;11.60;4.63;;;4.00;99.90;;;;;;6213728;23;20016;-89
2023/01/27 09:08:26;;;;;;;11.25;5.10;;;4.00;99.90;;;;;;6214150;23;20019;-90
2023/01/27 09:10:52;;;;;;;8.73;5.03;;;4.10;99.90;;;;;;6213486;23;20044;-91
2023/01/27 09:13:20;;;;;;;8.45;4.68;;;4.50;99.90;;;;;;6187720;23;20016;-91
2023/01/27 09:15:46;;;;;;;12.23;4.97;;;4.40;99.90;;;;;;6212890;23;20016;-89
2023/01/27 09:18:12;;;;;;;9.75;5.00;;;4.20;99.90;;;;;;6213468;23;20023;-90
2023/01/27 09:20:38;;;;;;;7.35;4.70;;;4.10;99.90;;;;;;6188095;23;20016;-89
2023/01/27 09:23:04;;;;;;;9.27;4.65;;;4.20;99.90;;;;;;6187234;23;20352;-89
2023/01/27 09:25:30;;;;;;;11.15;5.13;;;4.20;99.90;;;;;;6212708;23;20016;-88
2023/01/27 09:27:57;;;;;;;14.75;5.03;;;4.20;99.90;;;;;;6211840;23;20023;-89
2023/01/27 09:30:24;;;;;;;9.35;5.22;;;4.40;99.90;;;;;;6212454;23;20032;-89
2023/01/27 09:32:50;;;;;;;9.05;4.75;;;4.20;99.90;;;;;;6212708;23;20506;-88
2023/01/27 09:35:16;;;;;;;11.60;4.53;;;4.30;99.90;;;;;;6212964;23;20012;-90
2023/01/27 09:37:55;;;;;;;8.45;4.93;;;4.20;99.90;;;;;;6188498;23;20108;-90
2023/01/27 09:40:23;;;;;;;7.97;4.40;;;4.30;99.90;;;;;;6213721;23;20096;-89
2023/01/27 09:43:19;;;;;;;9.65;4.80;;;4.30;99.90;;;;;;6187340;23;20035;-90
2023/01/27 09:46:04;;;;;;;9.13;4.68;;;4.40;99.90;;;;;;6219528;23;20063;-87
2023/01/27 09:49:05;;;;;;;10.18;4.53;;;4.40;99.90;;;;;;6245628;23;20087;-91
2023/01/27 09:51:52;;;;;;;10.57;4.60;;;4.50;99.90;;;;;;6212217;23;20020;-88
2023/01/27 09:54:59;;;;;;;9.02;4.00;;;4.50;99.90;;;;;;6188281;23;20455;-90
2023/01/27 09:58:09;;;;;;;6.28;4.00;;;4.60;99.90;;;;;;6127262;23;20092;-88
2023/01/27 10:00:52;;;;;;;7.32;3.53;;;4.50;99.90;;;;;;6127108;23;20020;-89
2023/01/27 10:03:46;;;;;;;10.43;3.90;;;4.60;99.90;;;;;;6150992;23;20025;-90
2023/01/27 10:06:39;;;;;;;7.88;3.38;;;4.70;99.90;;;;;;6127835;23;20014;-93
2023/01/27 10:09:27;;;;;;;6.47;3.30;;;4.70;99.90;;;;;;6103439;23;20014;-90
2023/01/27 10:12:04;;;;;;;6.65;3.38;;;4.80;99.90;;;;;;6126749;23;20014;-89
2023/01/27 10:15:02;;;;;;;6.90;3.50;;;4.80;99.90;;;;;;6127225;23;20089;-89
2023/01/27 10:17:48;;;;;;;7.65;3.65;;;4.90;99.90;;;;;;6103038;23;20010;-92
2023/01/27 10:20:41;;;;;;;8.20;3.92;;;4.90;99.90;;;;;;6152521;23;20108;-89
2023/01/27 10:23:28;;;;;;;6.10;3.72;;;5.00;99.90;;;;;;6125604;23;20049;-80
2023/01/27 10:25:54;;;;;;;8.43;4.00;;;5.10;99.90;;;;;;6125998;23;20018;-90
2023/01/27 10:28:26;;;;;;;7.20;3.08;;;5.10;99.90;;;;;;6150808;23;20022;-85
2023/01/27 10:31:30;;;;;;;5.73;3.00;;;5.10;99.90;;;;;;6150234;23;20013;-87
2023/01/27 10:33:59;;;;;;;5.75;2.67;;;5.00;99.90;;;;;;6170655;23;20431;-90
2023/01/27 10:36:26;;;;;;;4.72;2.63;;;5.50;99.90;;;;;;6246461;23;20020;-89
2023/01/27 10:39:07;;;;;;;5.15;2.80;;;5.20;99.90;;;;;;6198314;23;20020;-91
2023/01/27 10:41:40;;;;;;;3.78;2.35;;;4.90;99.90;;;;;;6243460;23;20087;-92
2023/01/27 10:44:41;;;;;;;5.13;3.10;;;5.00;99.90;;;;;;6194174;23;20020;-92
2023/01/27 10:47:32;;;;;;;5.90;4.45;;;4.90;99.90;;;;;;6221416;23;20013;-92
2023/01/27 10:50:21;;;;;;;5.60;3.38;;;4.90;99.90;;;;;;6219958;23;20312;-90
2023/01/27 10:53:07;;;;;;;4.75;3.83;;;4.80;99.90;;;;;;6194425;23;20020;-89
2023/01/27 10:55:42;;;;;;;4.65;4.15;;;4.80;99.90;;;;;;6195765;23;20019;-90
2023/01/27 10:58:15;;;;;;;4.72;3.50;;;4.70;99.90;;;;;;6219616;23;20013;-90
2023/01/27 11:00:51;;;;;;;7.93;6.65;;;4.70;99.90;;;;;;6246012;23;20013;-88
2023/01/27 11:03:29;;;;;;;28.77;22.05;;;4.90;99.90;;;;;;6218906;23;20013;-89
2023/01/27 11:06:01;;;;;;;11.73;9.43;;;4.70;99.90;;;;;;6221147;23;20361;-92
2023/01/27 11:08:35;;;;;;;7.28;5.00;;;4.80;99.90;;;;;;6217452;23;20023;-83
2023/01/27 11:13:47;;;;;;;6.53;5.20;;;4.80;99.90;;;;;;6217764;23;20195;-89
2023/01/27 11:16:15;;;;;;;8.88;6.82;;;4.80;99.90;;;;;;6217915;23;20282;-88
2023/01/27 11:18:44;;;;;;;8.23;6.18;;;4.90;99.90;;;;;;6214380;23;20013;-84
2023/01/27 11:21:25;;;;;;;8.30;6.95;;;5.00;99.90;;;;;;6240175;23;20012;-88
2023/01/27 11:23:55;;;;;;;17.20;13.27;;;4.90;99.90;;;;;;6242318;23;20013;-89
2023/01/27 11:26:38;;;;;;;5.03;3.70;;;4.90;99.90;;;;;;6195701;23;20030;-90
2023/01/27 11:29:22;;;;;;;11.50;9.45;;;4.90;99.90;;;;;;6219988;23;20040;-89
2023/01/27 11:32:04;;;;;;;4.88;3.10;;;4.80;99.90;;;;;;6215938;23;20016;-87
2023/01/27 11:35:07;;;;;;;4.40;3.35;;;4.80;99.90;;;;;;6214772;23;20008;-92
2023/01/27 11:37:40;;;;;;;4.05;3.20;;;4.80;99.90;;;;;;6214005;23;20023;-87
2023/01/27 11:40:41;;;;;;;4.60;3.38;;;4.80;99.90;;;;;;6214849;23;20012;-88
2023/01/27 11:43:13;;;;;;;5.22;3.00;;;4.80;99.90;;;;;;6188489;23;20016;-88
2023/01/27 11:45:39;;;;;;;4.78;2.90;;;4.90;99.90;;;;;;6216204;23;20021;-89
2023/01/27 11:48:10;;;;;;;4.15;3.33;;;5.00;99.90;;;;;;6191866;23;20059;-88
2023/01/27 11:50:36;;;;;;;9.85;7.13;;;4.90;99.90;;;;;;6214982;23;20044;-90
2023/01/27 11:53:27;;;;;;;4.28;2.45;;;4.80;99.90;;;;;;6191299;23;20013;-89
2023/01/27 11:56:05;;;;;;;6.20;3.05;;;4.90;99.90;;;;;;6216681;23;20016;-88
2023/01/27 11:58:37;;;;;;;3.92;3.05;;;4.80;99.90;;;;;;6216678;23;20008;-89
2023/01/27 12:01:14;;;;;;;3.50;2.60;;;4.90;99.90;;;;;;6217898;23;20013;-89
2023/01/27 12:04:11;;;;;;;7.53;5.70;;;4.90;99.90;;;;;;6216895;23;20240;-90
2023/01/27 12:06:55;;;;;;;4.18;2.60;;;4.90;99.90;;;;;;6189207;23;20018;-88
2023/01/27 12:09:38;;;;;;;7.15;6.45;;;4.80;99.90;;;;;;6215158;23;20080;-86
2023/01/27 12:12:17;;;;;;;3.30;2.60;;;4.80;99.90;;;;;;6215282;23;20008;-87
2023/01/27 12:14:53;;;;;;;4.30;3.03;;;4.90;99.90;;;;;;6189021;23;20012;-85
2023/01/27 12:17:43;;;;;;;5.93;3.20;;;4.80;99.90;;;;;;6216314;23;20016;-87
2023/01/27 12:20:20;;;;;;;3.63;2.92;;;4.80;99.90;;;;;;6214708;23;20016;-87
2023/01/27 12:22:48;;;;;;;3.70;2.75;;;4.80;99.90;;;;;;6189363;23;20012;-87
2023/01/27 12:25:26;;;;;;;4.05;2.70;;;4.70;99.90;;;;;;6240944;23;20012;-88
2023/01/27 12:27:56;;;;;;;4.28;2.90;;;4.60;99.90;;;;;;6216167;23;20102;-88
2023/01/27 12:30:26;;;;;;;3.97;2.75;;;4.60;99.90;;;;;;6215248;23;20008;-87
2023/01/27 12:32:52;;;;;;;3.53;2.80;;;4.70;99.90;;;;;;6213249;23;20013;-87
2023/01/27 12:35:32;;;;;;;5.80;3.05;;;4.70;99.90;;;;;;6212634;23;20115;-85
2023/01/27 12:38:06;;;;;;;3.40;2.70;;;4.80;99.90;;;;;;6237418;23;20012;-87
2023/01/27 12:40:33;;;;;;;4.88;2.40;;;4.60;99.90;;;;;;6213125;23;20470;-86
2023/01/27 12:43:04;;;;;;;3.65;2.78;;;4.60;99.90;;;;;;6212987;23;20017;-87
2023/01/27 12:45:37;;;;;;;4.13;2.50;;;4.60;99.90;;;;;;6212928;23;20090;-86
2023/01/27 12:48:09;;;;;;;3.92;2.60;;;4.50;99.90;;;;;;6188328;23;20012;-87
2023/01/27 12:50:41;;;;;;;3.83;2.45;;;4.60;99.90;;;;;;6186822;23;20559;-87
2023/01/27 12:53:13;;;;;;;2.83;2.10;;;4.50;99.90;;;;;;6186939;23;20016;-86
2023/01/27 12:55:53;;;;;;;3.22;2.17;;;4.50;99.90;;;;;;6238010;23;20044;-86
2023/01/27 12:58:38;;;;;;;3.72;2.30;;;4.50;99.90;;;;;;6214143;23;20332;-87
2023/01/27 13:01:20;;;;;;;2.90;2.20;;;4.50;99.90;;;;;;6213445;23;20070;-86
2023/01/27 13:03:50;;;;;;;4.40;3.00;;;4.70;99.90;;;;;;6211889;23;20040;-87
2023/01/27 13:06:19;;;;;;;3.90;3.38;;;4.60;99.90;;;;;;6211837;23;20017;-86
2023/01/27 13:08:48;;;;;;;4.03;3.25;;;4.50;99.90;;;;;;6237922;23;20147;-86
2023/01/27 13:11:14;;;;;;;4.20;3.35;;;4.50;99.90;;;;;;6212244;23;20040;-86
2023/01/27 13:13:50;;;;;;;4.40;3.80;;;4.60;99.90;;;;;;6211938;23;20139;-86
2023/01/27 13:16:29;;;;;;;5.05;3.67;;;4.50;99.90;;;;;;6237911;23;20036;-86
2023/01/27 13:18:59;;;;;;;5.78;4.90;;;4.50;99.90;;;;;;6211442;23;20375;-86
2023/01/27 13:21:35;;;;;;;5.13;4.10;;;4.50;99.90;;;;;;6211451;23;20009;-86
2023/01/27 13:24:06;;;;;;;5.32;3.78;;;4.50;99.90;;;;;;6213537;23;20004;-85
2023/01/27 13:26:36;;;;;;;3.90;3.38;;;4.50;99.90;;;;;;6211357;23;20013;-87
2023/01/27 13:29:07;;;;;;;5.93;4.10;;;4.50;99.90;;;;;;6237325;23;20013;-87
2023/01/27 13:31:52;;;;;;;5.55;4.18;;;4.50;99.90;;;;;;6186838;23;20013;-87
2023/01/27 13:34:33;;;;;;;15.50;13.25;;;4.50;99.90;;;;;;6186005;23;20020;-86
2023/01/27 13:37:08;;;;;;;5.70;4.90;;;4.50;99.90;;;;;;6211180;23;20522;-88
2023/01/27 13:39:56;;;;;;;11.73;9.10;;;4.40;99.90;;;;;;6187905;23;20016;-87